Chanute, KS

8:41 PM CDT on July 30, 2016 (GMT -0500)
Chanute Martin Johnson | | Change Station

Elev 1001 ft 37.67 °N, 95.48 °W | Updated 49 minutes ago

Partly Cloudy
Partly Cloudy
83 °F
Feels Like 88 °F
N
8
Wind Variable Wind from SSE

Today
High -- | Low -- °F
--% Chance of Precip.
Yesterday
High -- | Low -- °F
Precip. -- in
Pressure 29.90 in
Visibility 10.0 miles
Clouds Few 4000 ft
Heat Index 88 °F
Dew Point 72 °F
Humidity 69%
Rainfall 0.00 in
Snow Depth Not available.
6:24 AM 8:31 PM
Waning Crescent, 9% visible
METAR KCNU 310052Z AUTO 16007KT 10SM FEW040 28/22 A2993 RMK AO2 SLP123 T02830222
Pressure 29.90 in
Visibility 10.0 miles
Clouds Few 4000 ft
Heat Index 88 °F
Dew Point 72 °F
Humidity 69%
Rainfall 0.00 in
Snow Depth Not available.
6:24 AM 8:31 PM
Waning Crescent, 9% visible
METAR KCNU 310052Z AUTO 16007KT 10SM FEW040 28/22 A2993 RMK AO2 SLP123 T02830222

10-Day Weather Forecast

Almanac

Astronomy

Jul. 30, 2016 Rise Set
Actual Time
Civil Twilight
Nautical Twilight
Astronomical Twilight
Moon
Length of Visible Light
Length of Day
Tomorrow will be .
, % of the Moon is Illuminated

Today's Extremes

State Highs State Lows

Community

WunderPhotos

Upload Photos

1,928,702 photos uploaded!

WunderBlog® & News

Nearby

Air Quality

  Air Quality AQ Index Pollutant
Not available.

Snow Depth

Station Depth Elevation

Earthquake Activity

City Distance Mag. Time & Date
Minimum magnitude displayed is 2.5.

Coastal Water Temperatures

Place Temperature

Stations

Nearby Weather Stations

Station Location Temp. Windchill Dew Point Humidity Wind Precip. Elev Updated Type
                   

Watches & Warnings

There are currently no watches in effect.